Time;durP1;ratioP1;P1;durP2;ratioP2;P2;SDS_P1;SDS_P2;PMS_P1;PMS_P2;Temp;Humidity;BMP_temperature;BMP_pressure;BME280_temperature;BME280_humidity;BME280_pressure;Samples;Min_cycle;Max_cycle;Signal;HPM_P1;HPM_P2
2023/10/05 00:01:03;;;;;;;11.38;6.63;;;;;;;;;;5098411;28;20062;-65
2023/10/05 00:03:30;;;;;;;11.60;6.90;;;;;;;;;;5080219;28;20516;-64
2023/10/05 00:06:15;;;;;;;11.00;6.40;;;;;;;;;;5080112;28;20032;-64
2023/10/05 00:08:47;;;;;;;13.05;7.47;;;;;;;;;;5098449;28;20024;-64
2023/10/05 00:11:22;;;;;;;12.00;7.28;;;;;;;;;;5079618;28;20111;-63
2023/10/05 00:13:59;;;;;;;12.18;7.35;;;;;;;;;;5080165;28;20023;-64
2023/10/05 00:16:37;;;;;;;11.25;6.60;;;;;;;;;;5097970;28;20027;-64
2023/10/05 00:19:11;;;;;;;11.60;6.75;;;;;;;;;;5079956;28;20046;-64
2023/10/05 00:24:18;;;;;;;10.90;6.38;;;;;;;;;;5098132;28;20024;-63
2023/10/05 00:26:49;;;;;;;11.55;6.72;;;;;;;;;;5098128;28;20027;-63
2023/10/05 00:29:24;;;;;;;21.80;8.20;;;;;;;;;;5098145;28;20032;-63
2023/10/05 00:31:50;;;;;;;12.07;7.13;;;;;;;;;;5098022;28;20044;-64
2023/10/05 00:34:27;;;;;;;11.65;6.82;;;;;;;;;;5098162;28;20027;-63
2023/10/05 00:36:57;;;;;;;14.32;8.38;;;;;;;;;;5098086;28;20096;-64
2023/10/05 00:39:23;;;;;;;22.77;8.27;;;;;;;;;;5080003;28;20087;-63
2023/10/05 00:44:32;;;;;;;11.75;6.93;;;;;;;;;;5095952;28;20032;-64
2023/10/05 00:47:05;;;;;;;12.13;7.35;;;;;;;;;;5095012;28;20024;-64
2023/10/05 00:49:42;;;;;;;12.23;7.57;;;;;;;;;;5076837;28;20044;-64
2023/10/05 00:52:15;;;;;;;17.63;7.18;;;;;;;;;;5094608;28;20025;-63
2023/10/05 00:54:51;;;;;;;12.98;8.55;;;;;;;;;;5094819;28;20020;-64
2023/10/05 00:57:22;;;;;;;11.60;6.80;;;;;;;;;;5094556;28;20094;-65
2023/10/05 01:03:09;;;;;;;11.68;6.97;;;;;;;;;;5065635;28;20036;-64
2023/10/05 01:05:47;;;;;;;12.00;7.22;;;;;;;;;;5094063;28;20412;-64
2023/10/05 01:08:15;;;;;;;11.70;6.82;;;;;;;;;;5093811;28;20074;-64
2023/10/05 01:10:48;;;;;;;11.52;6.70;;;;;;;;;;5075497;28;20051;-63
2023/10/05 01:13:26;;;;;;;12.20;7.20;;;;;;;;;;5094335;28;20115;-63
2023/10/05 01:15:54;;;;;;;11.70;6.82;;;;;;;;;;5076020;28;20020;-63
2023/10/05 01:18:24;;;;;;;11.63;6.78;;;;;;;;;;5093858;28;20075;-63
2023/10/05 01:20:51;;;;;;;11.45;6.68;;;;;;;;;;5093750;28;20027;-64
2023/10/05 01:23:18;;;;;;;12.45;7.50;;;;;;;;;;5093940;28;20020;-64
2023/10/05 01:25:44;;;;;;;14.65;7.55;;;;;;;;;;5075683;28;20024;-63
2023/10/05 01:28:10;;;;;;;11.80;6.90;;;;;;;;;;5093655;28;20154;-64
2023/10/05 01:30:38;;;;;;;15.80;7.95;;;;;;;;;;5093539;28;20108;-62
2023/10/05 01:33:04;;;;;;;19.15;8.15;;;;;;;;;;5093499;28;20027;-64
2023/10/05 01:35:30;;;;;;;12.13;7.05;;;;;;;;;;5076027;28;20035;-64
2023/10/05 01:37:59;;;;;;;12.10;7.10;;;;;;;;;;5094341;28;20032;-64
2023/10/05 01:40:26;;;;;;;;;;;;;;;;;;5095898;28;20031;-64
2023/10/05 01:42:53;;;;;;;12.23;7.10;;;;;;;;;;5093756;28;19947;-61
2023/10/05 01:45:25;;;;;;;12.52;7.22;;;;;;;;;;5093399;28;20034;-64
2023/10/05 01:47:51;;;;;;;12.43;7.30;;;;;;;;;;5093984;28;20064;-63
2023/10/05 01:50:22;;;;;;;11.55;6.70;;;;;;;;;;5092980;28;20036;-64
2023/10/05 01:55:32;;;;;;;12.02;7.10;;;;;;;;;;5093336;28;20028;-64
2023/10/05 01:57:58;;;;;;;12.20;7.00;;;;;;;;;;5093528;28;20478;-64
2023/10/05 02:00:25;;;;;;;11.93;6.90;;;;;;;;;;5093537;28;20115;-63
2023/10/05 02:02:55;;;;;;;11.80;6.85;;;;;;;;;;5093619;28;20064;-63
2023/10/05 02:05:21;;;;;;;12.40;7.40;;;;;;;;;;5093497;28;20116;-63
2023/10/05 02:07:50;;;;;;;11.40;6.60;;;;;;;;;;5075118;28;20032;-63
2023/10/05 02:10:20;;;;;;;12.35;7.30;;;;;;;;;;5093081;28;20119;-63
2023/10/05 02:12:49;;;;;;;12.45;7.22;;;;;;;;;;5093542;28;20105;-63
2023/10/05 02:15:16;;;;;;;13.55;8.20;;;;;;;;;;5092994;28;20030;-63
2023/10/05 02:17:45;;;;;;;13.70;7.65;;;;;;;;;;5093864;28;20619;-62
2023/10/05 02:20:25;;;;;;;14.38;7.72;;;;;;;;;;5093672;28;20073;-64
2023/10/05 02:22:52;;;;;;;11.82;6.90;;;;;;;;;;5093487;28;20131;-64
2023/10/05 02:25:24;;;;;;;12.00;7.10;;;;;;;;;;5093138;28;20020;-63
2023/10/05 02:27:50;;;;;;;11.65;6.80;;;;;;;;;;5092961;28;20032;-65
2023/10/05 02:30:17;;;;;;;12.18;7.63;;;;;;;;;;5092791;28;20492;-62
2023/10/05 02:32:44;;;;;;;11.55;6.80;;;;;;;;;;5074650;28;20039;-63
2023/10/05 02:35:24;;;;;;;13.00;7.10;;;;;;;;;;5074816;28;20051;-62
2023/10/05 02:37:52;;;;;;;11.68;6.82;;;;;;;;;;5074831;28;20024;-64
2023/10/05 02:40:19;;;;;;;11.52;6.75;;;;;;;;;;5075152;28;20115;-64
2023/10/05 02:42:51;;;;;;;38.45;7.85;;;;;;;;;;5074947;28;20039;-63
2023/10/05 02:45:17;;;;;;;11.40;6.75;;;;;;;;;;5074826;28;20156;-64
2023/10/05 02:47:43;;;;;;;12.05;7.00;;;;;;;;;;5074556;28;20064;-63
2023/10/05 02:50:09;;;;;;;11.55;6.72;;;;;;;;;;5092613;28;20024;-62
2023/10/05 02:52:36;;;;;;;12.20;7.20;;;;;;;;;;5092771;28;20031;-64
2023/10/05 02:55:06;;;;;;;11.80;6.85;;;;;;;;;;5092821;28;20013;-63
2023/10/05 02:57:32;;;;;;;11.60;6.80;;;;;;;;;;5092867;28;20020;-64
2023/10/05 02:59:59;;;;;;;11.90;6.90;;;;;;;;;;5074314;28;20082;-62
2023/10/05 03:02:25;;;;;;;12.50;7.80;;;;;;;;;;5092306;28;20111;-64
2023/10/05 03:04:57;;;;;;;13.82;7.32;;;;;;;;;;5092396;28;20031;-63
2023/10/05 03:07:27;;;;;;;13.10;8.32;;;;;;;;;;5092087;28;20047;-64
2023/10/05 03:09:56;;;;;;;12.40;7.20;;;;;;;;;;5092348;28;20016;-64
2023/10/05 03:12:23;;;;;;;13.40;7.70;;;;;;;;;;5092613;28;20028;-63
2023/10/05 03:14:54;;;;;;;12.10;7.30;;;;;;;;;;5074401;28;20084;-63
2023/10/05 03:17:21;;;;;;;12.32;7.20;;;;;;;;;;5074432;28;20036;-64
2023/10/05 03:19:48;;;;;;;12.60;7.18;;;;;;;;;;5092214;28;20019;-62
2023/10/05 03:22:15;;;;;;;12.60;7.50;;;;;;;;;;5091966;28;20040;-65
2023/10/05 03:24:44;;;;;;;12.30;7.10;;;;;;;;;;5092212;28;20379;-64
2023/10/05 03:27:10;;;;;;;12.93;7.50;;;;;;;;;;5092290;28;20105;-65
2023/10/05 03:29:38;;;;;;;12.30;7.10;;;;;;;;;;5092174;28;20507;-64
2023/10/05 03:34:34;;;;;;;12.15;7.10;;;;;;;;;;5092329;28;20490;-64
2023/10/05 03:37:07;;;;;;;12.70;7.43;;;;;;;;;;5073590;28;20020;-65
2023/10/05 03:39:38;;;;;;;12.43;7.20;;;;;;;;;;5073981;28;20047;-65
2023/10/05 03:42:05;;;;;;;12.30;7.13;;;;;;;;;;5091900;28;20075;-66
2023/10/05 03:44:31;;;;;;;12.07;7.00;;;;;;;;;;5091433;28;20370;-64
2023/10/05 03:46:57;;;;;;;13.88;7.63;;;;;;;;;;5091395;28;20032;-66
2023/10/05 03:49:23;;;;;;;12.23;7.10;;;;;;;;;;5091443;28;20490;-63
2023/10/05 03:51:49;;;;;;;12.30;7.10;;;;;;;;;;5091529;28;20426;-64
2023/10/05 03:54:19;;;;;;;11.98;6.95;;;;;;;;;;5091664;28;20411;-62
2023/10/05 03:56:50;;;;;;;13.00;8.07;;;;;;;;;;5091405;28;20024;-63
2023/10/05 03:59:16;;;;;;;12.40;7.32;;;;;;;;;;5091480;28;20072;-64
2023/10/05 04:01:48;;;;;;;13.10;7.70;;;;;;;;;;5091168;28;20024;-63
2023/10/05 04:04:15;;;;;;;12.20;7.10;;;;;;;;;;5091616;28;20385;-63
2023/10/05 04:06:42;;;;;;;12.80;7.40;;;;;;;;;;5091116;28;20071;-63
2023/10/05 04:09:15;;;;;;;12.38;7.18;;;;;;;;;;5073292;28;20061;-63
2023/10/05 04:11:42;;;;;;;12.10;7.00;;;;;;;;;;5072695;28;20485;-64
2023/10/05 04:14:09;;;;;;;12.27;7.10;;;;;;;;;;5091340;28;20097;-64
2023/10/05 04:16:35;;;;;;;12.45;7.25;;;;;;;;;;5091033;28;20046;-64
2023/10/05 04:19:04;;;;;;;12.18;7.10;;;;;;;;;;5073651;28;20133;-64
2023/10/05 04:21:32;;;;;;;12.20;7.10;;;;;;;;;;5094405;28;20091;-62
2023/10/05 04:24:02;;;;;;;13.10;7.70;;;;;;;;;;5095254;28;20034;-64
2023/10/05 04:26:37;;;;;;;12.35;7.22;;;;;;;;;;5094749;28;20385;-62
2023/10/05 04:29:04;;;;;;;12.30;7.10;;;;;;;;;;5076465;28;20512;-61
2023/10/05 04:31:31;;;;;;;11.95;6.90;;;;;;;;;;5094659;28;20115;-64
2023/10/05 04:33:57;;;;;;;12.00;7.00;;;;;;;;;;5094418;28;20140;-63
2023/10/05 04:36:24;;;;;;;11.90;6.90;;;;;;;;;;5094908;28;20047;-62
2023/10/05 04:38:53;;;;;;;11.50;6.75;;;;;;;;;;5094968;28;20024;-63
2023/10/05 04:41:19;;;;;;;12.20;7.15;;;;;;;;;;5094489;28;20394;-63
2023/10/05 04:43:49;;;;;;;12.68;7.38;;;;;;;;;;5094520;28;20047;-64
2023/10/05 04:46:18;;;;;;;12.30;7.10;;;;;;;;;;5095415;28;20020;-64
2023/10/05 04:48:55;;;;;;;12.43;7.40;;;;;;;;;;5094390;28;20252;-62
2023/10/05 04:51:22;;;;;;;11.90;6.90;;;;;;;;;;5093931;28;20072;-62
2023/10/05 04:53:52;;;;;;;13.30;8.07;;;;;;;;;;5094277;28;20087;-65
2023/10/05 04:56:35;;;;;;;12.13;7.00;;;;;;;;;;5094333;28;20012;-64
2023/10/05 05:07:07;;;;;;;12.65;7.25;;;;;;;;;;5094336;28;20398;-63
2023/10/05 05:09:34;;;;;;;12.25;7.15;;;;;;;;;;5075293;28;20025;-62
2023/10/05 05:12:05;;;;;;;20.58;9.00;;;;;;;;;;5118057;22;20055;-53
2023/10/05 05:14:35;;;;;;;12.77;7.35;;;;;;;;;;5112911;28;20031;-54
2023/10/05 05:17:05;;;;;;;32.00;8.85;;;;;;;;;;5114059;28;20514;-54
2023/10/05 05:19:31;;;;;;;12.73;7.35;;;;;;;;;;5113934;27;20050;-51
2023/10/05 05:22:02;;;;;;;19.27;8.35;;;;;;;;;;5112289;28;20031;-53
2023/10/05 05:24:28;;;;;;;12.80;7.43;;;;;;;;;;5113938;28;20020;-50
2023/10/05 05:27:00;;;;;;;13.18;7.70;;;;;;;;;;5112509;28;20024;-53
2023/10/05 05:29:29;;;;;;;13.40;8.10;;;;;;;;;;5113665;28;20039;-48
2023/10/05 05:31:55;;;;;;;14.35;8.45;;;;;;;;;;5111721;28;20020;-53
2023/10/05 05:34:25;;;;;;;13.25;7.88;;;;;;;;;;5106660;28;20035;-52
2023/10/05 05:36:53;;;;;;;12.90;7.40;;;;;;;;;;5113041;28;20032;-49
2023/10/05 05:39:20;;;;;;;13.05;7.55;;;;;;;;;;5093171;28;20024;-52
2023/10/05 05:41:55;;;;;;;13.60;8.20;;;;;;;;;;5096484;28;20023;-54
2023/10/05 05:44:21;;;;;;;14.48;9.48;;;;;;;;;;5113560;28;20092;-53
2023/10/05 05:46:49;;;;;;;13.20;7.70;;;;;;;;;;5113168;28;20383;-55
2023/10/05 05:49:16;;;;;;;24.13;9.35;;;;;;;;;;5113302;28;20528;-54
2023/10/05 05:51:44;;;;;;;12.52;7.30;;;;;;;;;;5096076;28;20044;-53
2023/10/05 05:54:10;;;;;;;11.68;6.80;;;;;;;;;;5092745;28;20430;-54
2023/10/05 05:56:37;;;;;;;12.30;7.10;;;;;;;;;;5092906;28;20162;-51
2023/10/05 05:59:03;;;;;;;12.27;7.10;;;;;;;;;;5091717;28;20509;-50
2023/10/05 06:01:29;;;;;;;12.30;7.20;;;;;;;;;;5091341;28;20035;-51
2023/10/05 06:03:56;;;;;;;12.75;7.35;;;;;;;;;;5092876;28;20393;-53
2023/10/05 06:06:22;;;;;;;12.70;7.50;;;;;;;;;;5091409;28;20109;-51
2023/10/05 06:08:49;;;;;;;13.18;7.65;;;;;;;;;;5109613;28;20487;-48
2023/10/05 06:11:15;;;;;;;13.00;8.32;;;;;;;;;;5112460;28;20043;-54
2023/10/05 06:13:45;;;;;;;13.35;7.90;;;;;;;;;;5112963;28;20112;-50
2023/10/05 06:16:12;;;;;;;14.77;8.07;;;;;;;;;;5111687;28;20031;-51
2023/10/05 06:18:38;;;;;;;12.52;7.25;;;;;;;;;;5111571;28;20023;-52
2023/10/05 06:21:05;;;;;;;12.75;7.47;;;;;;;;;;5112309;28;20097;-55
2023/10/05 06:23:34;;;;;;;13.07;7.85;;;;;;;;;;5112668;28;20042;-54
2023/10/05 06:26:01;;;;;;;13.05;7.63;;;;;;;;;;5111249;28;20020;-50
2023/10/05 06:28:27;;;;;;;12.50;7.30;;;;;;;;;;5111344;28;20028;-51
2023/10/05 06:30:54;;;;;;;12.45;7.22;;;;;;;;;;5111071;28;20110;-49
2023/10/05 06:33:20;;;;;;;12.68;7.38;;;;;;;;;;5112662;28;20024;-50
2023/10/05 06:35:46;;;;;;;13.52;8.23;;;;;;;;;;5112542;28;20527;-50
2023/10/05 06:38:14;;;;;;;14.30;9.18;;;;;;;;;;5112580;28;20031;-51
2023/10/05 06:40:40;;;;;;;14.63;8.20;;;;;;;;;;5112010;28;20091;-50
2023/10/05 06:43:06;;;;;;;13.30;8.00;;;;;;;;;;5110023;28;20485;-52
2023/10/05 06:45:32;;;;;;;13.70;8.07;;;;;;;;;;5112634;28;20027;-49
2023/10/05 06:47:58;;;;;;;12.50;7.25;;;;;;;;;;5110980;28;20027;-48
2023/10/05 06:50:24;;;;;;;12.38;7.60;;;;;;;;;;5110737;28;20043;-52
2023/10/05 06:52:52;;;;;;;13.38;7.93;;;;;;;;;;5112261;27;20031;-52
2023/10/05 06:55:18;;;;;;;12.95;8.13;;;;;;;;;;5110811;28;20020;-51
2023/10/05 06:57:45;;;;;;;14.50;8.30;;;;;;;;;;5112135;28;20070;-54
2023/10/05 07:00:20;;;;;;;14.40;8.70;;;;;;;;;;5111964;28;20019;-48
2023/10/05 07:02:49;;;;;;;13.40;7.72;;;;;;;;;;5112023;28;20076;-54
2023/10/05 07:05:16;;;;;;;12.70;7.32;;;;;;;;;;5111978;28;20039;-53
2023/10/05 07:07:42;;;;;;;12.90;7.80;;;;;;;;;;5110421;28;20020;-51
2023/10/05 07:10:10;;;;;;;14.23;8.55;;;;;;;;;;5111623;28;20561;-53
2023/10/05 07:12:38;;;;;;;12.82;7.60;;;;;;;;;;5111854;28;20492;-51
2023/10/05 07:15:05;;;;;;;12.25;7.10;;;;;;;;;;5111798;28;20023;-52
2023/10/05 07:17:31;;;;;;;11.45;6.68;;;;;;;;;;5110473;28;20035;-51
2023/10/05 07:19:58;;;;;;;12.38;7.18;;;;;;;;;;5111878;28;20024;-50
2023/10/05 07:22:23;;;;;;;13.40;8.68;;;;;;;;;;5110437;28;20039;-50
2023/10/05 07:24:50;;;;;;;11.93;6.97;;;;;;;;;;5111465;28;20168;-54
2023/10/05 07:27:16;;;;;;;13.27;7.53;;;;;;;;;;5109979;28;20469;-53
2023/10/05 07:29:45;;;;;;;11.88;6.88;;;;;;;;;;5110047;28;20028;-51
2023/10/05 07:32:11;;;;;;;12.25;7.07;;;;;;;;;;5111088;28;20370;-50
2023/10/05 07:34:38;;;;;;;12.23;7.10;;;;;;;;;;5111339;28;20024;-51
2023/10/05 07:37:05;;;;;;;13.10;7.78;;;;;;;;;;5111439;28;20103;-48
2023/10/05 07:39:31;;;;;;;12.57;7.50;;;;;;;;;;5111054;28;20028;-50
2023/10/05 07:41:59;;;;;;;12.50;7.25;;;;;;;;;;5109275;28;20488;-54
2023/10/05 07:44:27;;;;;;;12.68;7.30;;;;;;;;;;5111082;28;20023;-52
2023/10/05 07:46:53;;;;;;;13.10;7.60;;;;;;;;;;5110635;28;20024;-49
2023/10/05 07:49:20;;;;;;;12.98;7.68;;;;;;;;;;5109659;28;20107;-50
2023/10/05 07:51:46;;;;;;;12.65;7.35;;;;;;;;;;5110766;28;20028;-49
2023/10/05 07:54:12;;;;;;;13.18;7.75;;;;;;;;;;5110597;28;20481;-49
2023/10/05 07:56:38;;;;;;;12.88;7.43;;;;;;;;;;5114978;28;20020;-51
2023/10/05 07:59:04;;;;;;;13.05;7.60;;;;;;;;;;5114827;28;20433;-50
2023/10/05 08:01:30;;;;;;;22.33;9.35;;;;;;;;;;5114608;28;20477;-48
2023/10/05 08:03:57;;;;;;;13.60;8.30;;;;;;;;;;5114679;28;20477;-50
2023/10/05 08:06:25;;;;;;;13.40;7.80;;;;;;;;;;5115302;28;20077;-51
2023/10/05 08:08:51;;;;;;;13.13;8.00;;;;;;;;;;5115015;28;20038;-53
2023/10/05 08:11:17;;;;;;;13.35;8.07;;;;;;;;;;5113310;28;20118;-47
2023/10/05 08:13:43;;;;;;;13.48;8.25;;;;;;;;;;5113532;28;20027;-47
2023/10/05 08:16:09;;;;;;;13.77;8.70;;;;;;;;;;5113615;28;20442;-51
2023/10/05 08:18:36;;;;;;;13.52;8.40;;;;;;;;;;5113468;28;20669;-49
2023/10/05 08:21:02;;;;;;;13.40;7.80;;;;;;;;;;5113419;28;20119;-50
2023/10/05 08:23:31;;;;;;;12.73;7.40;;;;;;;;;;5114747;28;20024;-53
2023/10/05 08:25:57;;;;;;;13.35;7.88;;;;;;;;;;5115375;28;20027;-51
2023/10/05 08:28:24;;;;;;;13.18;7.78;;;;;;;;;;5115214;28;20034;-51
2023/10/05 08:31:06;;;;;;;14.77;9.15;;;;;;;;;;5113227;28;20028;-49
2023/10/05 08:33:35;;;;;;;13.13;7.70;;;;;;;;;;5114747;28;20039;-47
2023/10/05 08:36:06;;;;;;;13.40;8.20;;;;;;;;;;5114399;27;20015;-48
2023/10/05 08:38:36;;;;;;;13.10;7.85;;;;;;;;;;5113179;28;20035;-51
2023/10/05 08:41:11;;;;;;;13.00;7.60;;;;;;;;;;5114296;28;20024;-55
2023/10/05 08:43:40;;;;;;;13.68;8.10;;;;;;;;;;5113579;28;20053;-52
2023/10/05 08:46:14;;;;;;;12.82;7.50;;;;;;;;;;5114629;28;20603;-53
2023/10/05 08:48:41;;;;;;;12.98;7.80;;;;;;;;;;5114314;28;20024;-50
2023/10/05 08:51:10;;;;;;;13.70;8.45;;;;;;;;;;5114165;28;20034;-52
2023/10/05 08:53:44;;;;;;;14.52;8.73;;;;;;;;;;5112569;28;20024;-50
2023/10/05 08:56:15;;;;;;;13.20;7.97;;;;;;;;;;5114393;28;20027;-49
2023/10/05 08:58:47;;;;;;;16.35;9.10;;;;;;;;;;5113150;28;20501;-53
2023/10/05 09:01:24;;;;;;;13.82;8.55;;;;;;;;;;5114285;28;20481;-50
2023/10/05 09:03:53;;;;;;;17.10;9.40;;;;;;;;;;5114189;28;20032;-49
2023/10/05 09:06:30;;;;;;;24.55;9.63;;;;;;;;;;5111580;28;20496;-50
2023/10/05 09:11:32;;;;;;;13.57;8.55;;;;;;;;;;5114001;28;20091;-54
2023/10/05 09:14:08;;;;;;;13.60;8.70;;;;;;;;;;5114322;28;20489;-55
2023/10/05 09:16:41;;;;;;;17.13;9.10;;;;;;;;;;5113079;28;20027;-49
2023/10/05 09:19:08;;;;;;;13.52;8.40;;;;;;;;;;5114296;28;20012;-51
2023/10/05 09:21:44;;;;;;;14.07;9.75;;;;;;;;;;5113640;28;20160;-53
2023/10/05 09:24:20;;;;;;;13.85;9.32;;;;;;;;;;5107775;28;20107;-51
2023/10/05 09:26:55;;;;;;;13.65;8.98;;;;;;;;;;5100196;28;20020;-52
2023/10/05 09:29:28;;;;;;;13.65;8.90;;;;;;;;;;5104879;28;20026;-50
2023/10/05 09:31:54;;;;;;;13.60;8.60;;;;;;;;;;5106778;28;20020;-52
2023/10/05 09:34:35;;;;;;;14.00;9.75;;;;;;;;;;5111380;28;20020;-52
2023/10/05 09:37:07;;;;;;;16.88;10.00;;;;;;;;;;5092800;28;20055;-51
2023/10/05 09:39:43;;;;;;;13.90;9.50;;;;;;;;;;5093144;28;20020;-52
2023/10/05 09:42:25;;;;;;;16.05;10.82;;;;;;;;;;5093101;28;20474;-49
2023/10/05 09:44:52;;;;;;;19.35;10.60;;;;;;;;;;5093282;28;20389;-51
2023/10/05 09:47:22;;;;;;;13.82;9.30;;;;;;;;;;5092721;28;20032;-49
2023/10/05 09:49:50;;;;;;;13.90;9.50;;;;;;;;;;5101390;28;20028;-53
2023/10/05 09:52:16;;;;;;;;;;;;;;;;;;5093410;28;20031;-54
2023/10/05 09:54:42;;;;;;;17.95;10.02;;;;;;;;;;5093198;28;19904;-57
2023/10/05 09:57:12;;;;;;;13.95;9.50;;;;;;;;;;5093155;28;20051;-55
2023/10/05 09:59:43;;;;;;;13.98;9.73;;;;;;;;;;5092289;28;20448;-46
2023/10/05 10:02:16;;;;;;;14.23;9.93;;;;;;;;;;5096364;28;20508;-51
2023/10/05 10:04:43;;;;;;;13.98;9.60;;;;;;;;;;5096107;28;20028;-51
2023/10/05 10:07:15;;;;;;;13.80;9.20;;;;;;;;;;5092336;28;20128;-53
2023/10/05 10:09:44;;;;;;;13.80;9.20;;;;;;;;;;5092225;28;20024;-50
2023/10/05 10:12:11;;;;;;;13.90;9.50;;;;;;;;;;5091968;28;20024;-52
2023/10/05 10:14:41;;;;;;;13.77;9.32;;;;;;;;;;5092313;28;20545;-55
2023/10/05 10:17:10;;;;;;;13.80;9.13;;;;;;;;;;5090514;28;20107;-54
2023/10/05 10:19:45;;;;;;;13.88;9.25;;;;;;;;;;5111592;28;20069;-56
2023/10/05 10:22:12;;;;;;;14.77;10.57;;;;;;;;;;5112279;28;20571;-52
2023/10/05 10:24:40;;;;;;;14.07;9.63;;;;;;;;;;5112769;28;20026;-51
2023/10/05 10:27:14;;;;;;;13.85;9.30;;;;;;;;;;5111062;28;20023;-54
2023/10/05 10:29:44;;;;;;;13.80;9.20;;;;;;;;;;5100002;28;20088;-51
2023/10/05 10:32:22;;;;;;;13.93;9.13;;;;;;;;;;5091496;28;20105;-55
2023/10/05 10:35:09;;;;;;;13.80;9.20;;;;;;;;;;5094218;28;20027;-52
2023/10/05 10:37:44;;;;;;;13.98;9.32;;;;;;;;;;5109802;28;20130;-53
2023/10/05 10:42:49;;;;;;;13.93;9.55;;;;;;;;;;5111925;28;20434;-54
2023/10/05 10:45:16;;;;;;;13.75;9.02;;;;;;;;;;5108611;28;20035;-54
2023/10/05 10:47:48;;;;;;;13.80;9.07;;;;;;;;;;5111877;28;20076;-52
2023/10/05 10:50:16;;;;;;;13.70;8.90;;;;;;;;;;5111625;28;20477;-55
2023/10/05 10:52:49;;;;;;;13.65;8.85;;;;;;;;;;5110402;28;20110;-53
2023/10/05 10:55:15;;;;;;;13.60;8.90;;;;;;;;;;5111858;28;20409;-53
2023/10/05 10:57:45;;;;;;;13.80;9.15;;;;;;;;;;5111520;28;20028;-52
2023/10/05 11:02:56;;;;;;;13.57;8.60;;;;;;;;;;5112061;28;20046;-55
2023/10/05 11:05:36;;;;;;;13.57;8.60;;;;;;;;;;5111731;28;20638;-54
2023/10/05 11:08:05;;;;;;;13.98;9.57;;;;;;;;;;5112011;28;20024;-53
2023/10/05 11:10:31;;;;;;;13.80;8.93;;;;;;;;;;5110175;28;20024;-52
2023/10/05 11:13:14;;;;;;;13.60;8.80;;;;;;;;;;5108806;22;20097;-48
2023/10/05 11:16:09;;;;;;;13.68;8.88;;;;;;;;;;5091710;28;20057;-46
2023/10/05 11:18:41;;;;;;;13.90;9.45;;;;;;;;;;5071780;28;20509;-51
2023/10/05 11:21:12;;;;;;;13.70;9.00;;;;;;;;;;5091397;28;20028;-51
2023/10/05 11:23:55;;;;;;;13.90;9.50;;;;;;;;;;5092271;28;20020;-50
2023/10/05 11:26:28;;;;;;;13.80;9.30;;;;;;;;;;5090529;28;20056;-50
2023/10/05 11:28:56;;;;;;;13.90;9.52;;;;;;;;;;5078690;28;20032;-48
2023/10/05 11:31:24;;;;;;;14.50;10.50;;;;;;;;;;5063188;28;20423;-49
2023/10/05 11:33:53;;;;;;;13.88;9.45;;;;;;;;;;5080792;28;20025;-53
2023/10/05 11:36:22;;;;;;;13.98;9.63;;;;;;;;;;5080333;28;20062;-53
2023/10/05 11:39:00;;;;;;;14.30;9.95;;;;;;;;;;5085100;28;20039;-51
2023/10/05 11:41:29;;;;;;;14.07;10.00;;;;;;;;;;5092016;28;20036;-51
2023/10/05 11:43:56;;;;;;;14.07;10.00;;;;;;;;;;5073667;28;20426;-49
2023/10/05 11:46:29;;;;;;;14.30;10.50;;;;;;;;;;5073716;28;20032;-51
2023/10/05 11:48:56;;;;;;;14.10;10.13;;;;;;;;;;5091990;28;20023;-52
2023/10/05 11:51:27;;;;;;;18.33;10.68;;;;;;;;;;5091288;28;20446;-50
2023/10/05 11:53:55;;;;;;;14.43;10.30;;;;;;;;;;5058253;28;20054;-51
2023/10/05 11:56:22;;;;;;;14.10;10.10;;;;;;;;;;5071683;28;20073;-53
2023/10/05 11:58:49;;;;;;;14.18;10.18;;;;;;;;;;5071189;28;20032;-52
2023/10/05 12:01:20;;;;;;;23.73;11.05;;;;;;;;;;5071087;28;20482;-49
2023/10/05 12:03:47;;;;;;;14.30;10.50;;;;;;;;;;5069997;28;20021;-51
2023/10/05 12:06:15;;;;;;;15.15;10.73;;;;;;;;;;5084723;28;20043;-49
2023/10/05 12:08:47;;;;;;;14.00;9.77;;;;;;;;;;5090694;28;20026;-48
2023/10/05 12:11:14;;;;;;;14.18;10.20;;;;;;;;;;5091049;28;20036;-48
2023/10/05 12:13:41;;;;;;;14.70;10.70;;;;;;;;;;5091040;28;20110;-51
2023/10/05 12:16:11;;;;;;;14.00;9.80;;;;;;;;;;5091362;28;20062;-51
2023/10/05 12:18:38;;;;;;;15.65;11.73;;;;;;;;;;5091605;28;20024;-52
2023/10/05 12:21:04;;;;;;;15.85;11.77;;;;;;;;;;5079593;28;20035;-52
2023/10/05 12:23:30;;;;;;;14.18;10.23;;;;;;;;;;5071222;28;20021;-52
2023/10/05 12:25:56;;;;;;;14.63;10.57;;;;;;;;;;5071300;28;20035;-48
2023/10/05 12:28:23;;;;;;;14.07;9.98;;;;;;;;;;5070392;28;20100;-50
2023/10/05 12:30:50;;;;;;;14.30;10.10;;;;;;;;;;5052956;28;20078;-49
2023/10/05 12:33:16;;;;;;;18.35;10.93;;;;;;;;;;5071196;28;20025;-52
2023/10/05 12:35:48;;;;;;;14.75;11.38;;;;;;;;;;5081524;28;20031;-48
2023/10/05 12:38:15;;;;;;;13.98;9.73;;;;;;;;;;5089211;28;20103;-49
2023/10/05 12:40:41;;;;;;;13.98;9.73;;;;;;;;;;5092855;28;20028;-52
2023/10/05 12:43:09;;;;;;;14.30;10.50;;;;;;;;;;5094973;28;20047;-54
2023/10/05 12:45:35;;;;;;;14.10;10.00;;;;;;;;;;5094684;28;20065;-55
2023/10/05 12:48:04;;;;;;;14.30;10.30;;;;;;;;;;5094540;28;20070;-49
2023/10/05 12:50:30;;;;;;;15.40;11.13;;;;;;;;;;5094587;28;20016;-51
2023/10/05 12:52:58;;;;;;;15.40;11.73;;;;;;;;;;5094970;28;20138;-53
2023/10/05 12:55:29;;;;;;;16.73;11.27;;;;;;;;;;5092116;28;20390;-53
2023/10/05 12:57:55;;;;;;;14.40;10.55;;;;;;;;;;5077687;28;20039;-52
2023/10/05 13:00:22;;;;;;;25.80;10.90;;;;;;;;;;5094462;28;20115;-51
2023/10/05 13:02:52;;;;;;;19.75;10.73;;;;;;;;;;5094599;28;20032;-52
2023/10/05 13:05:22;;;;;;;14.50;10.52;;;;;;;;;;5094160;28;20056;-52
2023/10/05 13:07:53;;;;;;;14.07;9.90;;;;;;;;;;5094736;28;20035;-54
2023/10/05 13:10:26;;;;;;;14.20;10.27;;;;;;;;;;5094035;28;20024;-50
2023/10/05 13:12:52;;;;;;;14.60;10.27;;;;;;;;;;5093340;28;20046;-55
2023/10/05 13:15:24;;;;;;;15.68;10.27;;;;;;;;;;5076275;28;20024;-52
2023/10/05 13:17:56;;;;;;;22.55;10.75;;;;;;;;;;5094151;28;20039;-51
2023/10/05 13:20:26;;;;;;;14.00;9.80;;;;;;;;;;5094084;28;20439;-50
2023/10/05 13:22:53;;;;;;;13.90;9.50;;;;;;;;;;5093996;28;20110;-49
2023/10/05 13:25:22;;;;;;;14.23;10.10;;;;;;;;;;5093890;28;20497;-50
2023/10/05 13:27:48;;;;;;;14.40;10.80;;;;;;;;;;5081857;28;20028;-51
2023/10/05 13:30:22;;;;;;;14.05;9.68;;;;;;;;;;5073579;28;20027;-53
2023/10/05 13:32:49;;;;;;;15.20;10.65;;;;;;;;;;5073781;28;20028;-50
2023/10/05 13:35:18;;;;;;;15.48;11.27;;;;;;;;;;5080466;28;20032;-53
2023/10/05 13:37:44;;;;;;;14.00;9.60;;;;;;;;;;5094216;28;20055;-49
2023/10/05 13:40:15;;;;;;;15.32;9.85;;;;;;;;;;5093694;28;20425;-50
2023/10/05 13:42:43;;;;;;;14.70;10.68;;;;;;;;;;5074075;28;20157;-48
2023/10/05 13:45:14;;;;;;;14.20;10.15;;;;;;;;;;5093921;28;20401;-53
2023/10/05 13:47:40;;;;;;;13.93;9.70;;;;;;;;;;5075577;28;20028;-50
2023/10/05 13:50:07;;;;;;;13.90;9.68;;;;;;;;;;5093847;28;20032;-51
2023/10/05 13:52:45;;;;;;;13.75;9.10;;;;;;;;;;5092958;28;20102;-53
2023/10/05 13:55:14;;;;;;;13.93;9.60;;;;;;;;;;5092879;28;20020;-52
2023/10/05 13:57:40;;;;;;;15.73;10.90;;;;;;;;;;5086605;28;20021;-53
2023/10/05 14:00:17;;;;;;;14.05;10.00;;;;;;;;;;5072982;28;20398;-53
2023/10/05 14:02:44;;;;;;;17.60;11.80;;;;;;;;;;5072368;28;20398;-52
2023/10/05 14:05:10;;;;;;;19.65;10.35;;;;;;;;;;5053184;28;20776;-49
2023/10/05 14:07:36;;;;;;;13.98;9.68;;;;;;;;;;5070932;28;20024;-53
2023/10/05 14:10:05;;;;;;;14.13;9.90;;;;;;;;;;5053065;28;20031;-53
2023/10/05 14:12:31;;;;;;;13.93;9.65;;;;;;;;;;5070712;28;20107;-50
2023/10/05 14:15:02;;;;;;;14.30;10.38;;;;;;;;;;5071229;28;20382;-56
2023/10/05 14:17:28;;;;;;;14.05;9.95;;;;;;;;;;5071461;28;20020;-54
2023/10/05 14:19:54;;;;;;;14.05;9.80;;;;;;;;;;5072143;28;20369;-48
2023/10/05 14:22:22;;;;;;;14.18;10.35;;;;;;;;;;5072471;28;20115;-50
2023/10/05 14:24:48;;;;;;;14.00;9.73;;;;;;;;;;5054994;28;20035;-50
2023/10/05 14:27:16;;;;;;;14.55;10.25;;;;;;;;;;5072775;28;20032;-48
2023/10/05 14:29:44;;;;;;;14.00;9.90;;;;;;;;;;5077259;28;20063;-49
2023/10/05 14:32:11;;;;;;;14.95;10.48;;;;;;;;;;5072404;28;20537;-54
2023/10/05 14:34:41;;;;;;;14.27;10.40;;;;;;;;;;5074045;28;20040;-50
2023/10/05 14:37:07;;;;;;;15.65;10.38;;;;;;;;;;5092659;28;20028;-52
2023/10/05 14:39:36;;;;;;;14.85;10.35;;;;;;;;;;5092770;28;20054;-53
2023/10/05 14:42:04;;;;;;;14.43;10.25;;;;;;;;;;5074174;28;20028;-54
2023/10/05 14:44:35;;;;;;;14.40;9.98;;;;;;;;;;5090354;28;20024;-50
2023/10/05 14:47:04;;;;;;;14.05;9.40;;;;;;;;;;5092583;28;20024;-50
2023/10/05 14:49:31;;;;;;;13.75;9.30;;;;;;;;;;5093114;28;20020;-51
2023/10/05 14:52:00;;;;;;;14.82;10.20;;;;;;;;;;5092325;28;20016;-49
2023/10/05 14:54:26;;;;;;;14.00;9.85;;;;;;;;;;5093382;28;20023;-50
2023/10/05 14:56:55;;;;;;;15.65;9.70;;;;;;;;;;4729683;28;9999982;-51
2023/10/05 14:59:21;;;;;;;13.88;9.38;;;;;;;;;;5077477;28;20020;-50
2023/10/05 15:01:47;;;;;;;14.68;10.48;;;;;;;;;;5074443;28;20029;-54
2023/10/05 15:04:13;;;;;;;13.95;9.52;;;;;;;;;;5068533;28;20029;-50
2023/10/05 15:06:39;;;;;;;16.65;10.50;;;;;;;;;;5089347;28;20050;-53
2023/10/05 15:09:05;;;;;;;14.00;9.73;;;;;;;;;;5089817;28;20433;-50